createdAt,value
2019-04-29T00:02:00.489Z,8.40
2019-04-29T00:04:49.556Z,8.40
2019-04-29T00:07:19.330Z,8.40
2019-04-29T00:13:07.370Z,8.40
2019-04-29T00:16:14.915Z,8.30
2019-04-29T00:19:03.785Z,8.20
2019-04-29T00:21:52.724Z,8.10
2019-04-29T00:24:41.548Z,8.20
2019-04-29T00:27:30.231Z,8.10
2019-04-29T00:33:01.475Z,8.20
2019-04-29T00:35:50.286Z,8.20
2019-04-29T00:38:32.304Z,8.20
2019-04-29T00:41:39.879Z,8.10
2019-04-29T00:44:28.720Z,8.20
2019-04-29T00:46:58.366Z,8.10
2019-04-29T00:49:47.077Z,8.10
2019-04-29T00:52:35.815Z,8.20
2019-04-29T00:55:20.099Z,8.20
2019-04-29T00:58:01.486Z,8.20
2019-04-29T01:00:42.907Z,8.10
2019-04-29T01:03:23.814Z,8.10
2019-04-29T01:06:06.100Z,8.00
2019-04-29T01:08:35.791Z,8.00
2019-04-29T01:11:45.168Z,8.00
2019-04-29T01:14:34.132Z,8.00
2019-04-29T01:17:04.533Z,8.00
2019-04-29T01:19:34.298Z,8.00
2019-04-29T01:22:04.104Z,8.00
2019-04-29T01:24:34.067Z,8.00
2019-04-29T01:27:31.690Z,8.00
2019-04-29T01:30:01.390Z,8.00
2019-04-29T01:32:32.442Z,7.90
2019-04-29T01:38:01.949Z,7.90
2019-04-29T01:44:06.544Z,7.90
2019-04-29T01:50:04.874Z,7.70
2019-04-29T01:52:34.542Z,7.70
2019-04-29T01:55:04.810Z,7.60
2019-04-29T01:57:34.911Z,7.60
2019-04-29T02:06:13.678Z,7.50
2019-04-29T02:08:43.795Z,7.60
2019-04-29T02:11:32.588Z,7.60
2019-04-29T02:14:21.187Z,7.50
2019-04-29T02:17:09.915Z,7.50
2019-04-29T02:19:58.565Z,7.60
2019-04-29T02:23:07.556Z,7.50
2019-04-29T02:28:46.503Z,7.50
2019-04-29T02:31:53.991Z,7.50
2019-04-29T02:34:42.762Z,7.50
2019-04-29T02:46:25.394Z,7.50
2019-04-29T02:54:43.957Z,7.40
2019-04-29T02:57:51.494Z,7.40
2019-04-29T03:00:55.237Z,7.40
2019-04-29T03:09:22.902Z,7.20
2019-04-29T03:15:11.370Z,7.20
2019-04-29T03:18:00.160Z,7.20
2019-04-29T03:21:07.771Z,7.10
2019-04-29T03:27:05.697Z,7.20
2019-04-29T03:29:54.480Z,7.20
2019-04-29T03:32:24.358Z,7.20
2019-04-29T03:34:54.432Z,7.20
2019-04-29T03:37:24.061Z,7.20
2019-04-29T03:39:53.815Z,7.20
2019-04-29T03:42:23.464Z,7.20
2019-04-29T03:44:53.111Z,7.10
2019-04-29T03:47:23.197Z,7.10
2019-04-29T03:49:52.896Z,7.10
2019-04-29T03:52:22.604Z,7.10
2019-04-29T03:54:52.730Z,7.10
2019-04-29T03:57:22.412Z,7.20
2019-04-29T03:59:52.402Z,7.20
2019-04-29T04:02:32.044Z,7.10
2019-04-29T04:05:28.538Z,7.20
2019-04-29T04:08:02.957Z,7.10
2019-04-29T04:10:32.636Z,7.10
2019-04-29T04:13:02.311Z,7.20
2019-04-29T04:15:32.342Z,7.10
2019-04-29T04:18:29.992Z,7.10
2019-04-29T04:21:18.765Z,7.20
2019-04-29T04:23:48.503Z,7.10
2019-04-29T04:26:37.286Z,7.10
2019-04-29T04:29:26.132Z,7.10
2019-04-29T04:31:56.454Z,7.10
2019-04-29T04:34:45.097Z,7.10
2019-04-29T04:37:26.964Z,7.20
2019-04-29T04:39:46.723Z,7.10
2019-04-29T04:45:35.982Z,7.20
2019-04-29T04:48:24.776Z,7.00
2019-04-29T04:50:54.444Z,7.10
2019-04-29T04:53:24.543Z,7.10
2019-04-29T04:56:13.268Z,7.20
2019-04-29T04:58:43.239Z,7.20
2019-04-29T05:01:12.904Z,7.20
2019-04-29T05:03:54.387Z,7.20
2019-04-29T05:06:24.090Z,7.20
2019-04-29T05:11:55.724Z,7.20
2019-04-29T05:14:25.469Z,7.20
2019-04-29T05:17:14.173Z,7.20
2019-04-29T05:22:34.411Z,7.30
2019-04-29T05:25:23.054Z,7.30
2019-04-29T05:28:11.835Z,7.30
2019-04-29T05:31:00.467Z,7.40
2019-04-29T05:33:30.558Z,7.40
2019-04-29T05:36:39.241Z,7.40
2019-04-29T05:39:13.098Z,7.40
2019-04-29T05:41:42.913Z,7.50
2019-04-29T05:44:50.465Z,7.50
2019-04-29T05:47:39.246Z,7.50
2019-04-29T05:50:35.848Z,7.60
2019-04-29T05:53:43.331Z,7.60
2019-04-29T05:56:32.083Z,7.70
2019-04-29T05:59:02.374Z,7.70
2019-04-29T06:01:32.734Z,7.80
2019-04-29T06:04:03.008Z,7.90
2019-04-29T06:06:32.675Z,8.00
2019-04-29T06:11:51.159Z,8.10
2019-04-29T06:14:22.290Z,8.20
2019-04-29T06:17:31.429Z,8.30
2019-04-29T06:20:01.351Z,8.40
2019-04-29T06:22:31.511Z,8.50
2019-04-29T06:25:20.470Z,8.50
2019-04-29T06:27:50.123Z,8.60
2019-04-29T06:30:45.122Z,8.70
2019-04-29T06:33:13.009Z,8.80
2019-04-29T06:35:43.382Z,8.90
2019-04-29T06:38:14.513Z,8.90
2019-04-29T06:41:05.556Z,9.00
2019-04-29T06:43:34.965Z,9.10
2019-04-29T06:46:04.979Z,9.10
2019-04-29T06:48:34.686Z,9.20
2019-04-29T06:51:04.469Z,9.30
2019-04-29T06:53:34.458Z,9.40
2019-04-29T06:56:04.200Z,9.40
2019-04-29T06:58:36.694Z,9.50
2019-04-29T07:01:05.660Z,9.60
2019-04-29T07:03:35.325Z,9.60
2019-04-29T07:06:05.232Z,9.70
2019-04-29T07:08:35.481Z,9.80
2019-04-29T07:11:05.245Z,9.90
2019-04-29T07:13:42.062Z,10.00
2019-04-29T07:16:27.276Z,10.00
2019-04-29T07:18:57.385Z,10.10
2019-04-29T07:21:30.380Z,10.20
2019-04-29T07:24:00.151Z,10.30
2019-04-29T07:26:29.943Z,10.30
2019-04-29T07:28:59.979Z,10.40
2019-04-29T07:31:33.433Z,10.50
2019-04-29T07:36:39.489Z,10.60
2019-04-29T07:39:09.416Z,10.60
2019-04-29T07:41:39.464Z,10.70
2019-04-29T07:44:09.229Z,10.80
2019-04-29T07:47:06.163Z,10.90
2019-04-29T07:53:07.667Z,11.00
2019-04-29T07:55:56.416Z,11.00
2019-04-29T07:58:48.465Z,11.10
2019-04-29T08:01:35.677Z,11.10
2019-04-29T08:04:49.224Z,11.20
2019-04-29T08:07:41.261Z,11.30
2019-04-29T08:10:23.797Z,11.40
2019-04-29T08:12:59.011Z,11.50
2019-04-29T08:15:51.774Z,11.70
2019-04-29T08:18:16.450Z,11.80
2019-04-29T08:26:38.282Z,12.10
2019-04-29T08:29:14.160Z,12.20
2019-04-29T08:32:05.130Z,12.30
2019-04-29T08:38:13.991Z,12.30
2019-04-29T08:44:15.650Z,12.40
2019-04-29T08:46:44.442Z,12.60
2019-04-29T08:49:14.822Z,12.80
2019-04-29T08:51:55.390Z,12.90
2019-04-29T08:54:55.501Z,13.10
2019-04-29T08:58:10.719Z,13.30
2019-04-29T09:00:40.958Z,13.50
2019-04-29T09:03:40.205Z,13.80
2019-04-29T09:06:20.080Z,14.10
2019-04-29T09:09:28.506Z,14.40
2019-04-29T09:12:29.076Z,14.80
2019-04-29T09:20:47.152Z,16.20
2019-04-29T09:23:30.996Z,16.50
2019-04-29T09:26:34.446Z,16.90
2019-04-29T09:29:58.893Z,17.30
2019-04-29T09:32:53.649Z,17.30
2019-04-29T09:35:22.765Z,17.40
2019-04-29T09:37:53.807Z,17.70
2019-04-29T09:44:29.642Z,17.60
2019-04-29T09:49:53.282Z,17.00
2019-04-29T09:52:48.171Z,17.30
2019-04-29T09:55:29.587Z,17.60
2019-04-29T09:58:06.258Z,17.90
2019-04-29T10:01:26.846Z,17.90
2019-04-29T10:04:56.419Z,17.70
2019-04-29T10:07:19.112Z,17.70
2019-04-29T10:10:15.498Z,17.90
2019-04-29T10:13:20.135Z,18.20
2019-04-29T10:16:35.910Z,18.40
2019-04-29T10:20:09.679Z,18.50
2019-04-29T10:23:28.286Z,18.40
2019-04-29T10:26:13.914Z,18.30
2019-04-29T10:29:03.306Z,18.20
2019-04-29T10:36:37.293Z,19.10
2019-04-29T10:38:30.530Z,19.80
2019-04-29T10:41:18.190Z,20.10
2019-04-29T10:45:12.799Z,20.40
2019-04-29T10:48:22.965Z,20.50
2019-04-29T10:50:55.289Z,20.00
2019-04-29T10:53:24.997Z,19.40
2019-04-29T10:55:55.639Z,19.20
2019-04-29T10:58:30.156Z,19.50
2019-04-29T11:06:00.614Z,20.30
2019-04-29T11:09:02.816Z,20.80
2019-04-29T11:11:27.282Z,21.20
2019-04-29T11:14:20.559Z,21.10
2019-04-29T11:17:05.743Z,20.80
2019-04-29T11:19:41.712Z,20.20
2019-04-29T11:22:23.586Z,19.60
2019-04-29T11:25:27.818Z,19.10
2019-04-29T11:28:03.430Z,18.60
2019-04-29T11:30:39.390Z,18.60
2019-04-29T11:33:24.879Z,19.20
2019-04-29T11:36:21.440Z,19.60
2019-04-29T11:38:58.896Z,19.50
2019-04-29T11:41:31.490Z,19.00
2019-04-29T11:44:01.363Z,18.70
2019-04-29T11:46:31.428Z,18.90
2019-04-29T11:52:55.639Z,19.50
2019-04-29T11:55:24.462Z,19.30
2019-04-29T11:58:02.246Z,18.90
2019-04-29T12:00:55.767Z,18.70
2019-04-29T12:04:03.762Z,18.40
2019-04-29T12:13:41.063Z,18.10
2019-04-29T12:16:46.100Z,18.70
2019-04-29T12:19:32.996Z,19.30
2019-04-29T12:22:26.884Z,19.80
2019-04-29T12:24:56.684Z,19.80
2019-04-29T12:27:43.305Z,19.70
2019-04-29T12:33:32.450Z,19.00
2019-04-29T12:36:09.164Z,18.70
2019-04-29T12:38:56.455Z,18.50
2019-04-29T12:41:53.257Z,18.30
2019-04-29T12:44:52.203Z,18.30
2019-04-29T12:48:24.519Z,18.30
2019-04-29T12:52:46.780Z,18.10
2019-04-29T12:53:46.407Z,18.20
2019-04-29T12:56:36.800Z,18.70
2019-04-29T12:59:07.439Z,19.10
2019-04-29T13:05:22.175Z,18.90
2019-04-29T13:08:00.125Z,18.60
2019-04-29T13:10:58.013Z,18.70
2019-04-29T13:13:40.188Z,19.00
2019-04-29T13:16:29.657Z,19.30
2019-04-29T13:19:16.268Z,19.50
2019-04-29T13:22:46.134Z,19.70
2019-04-29T13:28:51.754Z,19.60
2019-04-29T13:31:55.784Z,19.50
2019-04-29T13:34:41.836Z,19.30
2019-04-29T13:37:43.669Z,19.30
2019-04-29T13:45:04.526Z,19.60
2019-04-29T13:50:39.235Z,20.10
2019-04-29T13:53:03.660Z,20.00
2019-04-29T13:55:49.457Z,19.90
2019-04-29T13:58:22.379Z,19.80
2019-04-29T14:04:51.238Z,19.20
2019-04-29T14:07:29.896Z,19.20
2019-04-29T14:10:54.073Z,19.30
2019-04-29T14:14:48.115Z,19.30
2019-04-29T14:17:26.538Z,19.30
2019-04-29T14:19:50.270Z,19.30
2019-04-29T14:22:22.556Z,19.30
2019-04-29T14:24:51.986Z,19.00
2019-04-29T14:27:25.022Z,19.10
2019-04-29T14:32:42.106Z,19.00
2019-04-29T14:35:39.623Z,18.80
2019-04-29T14:38:23.932Z,18.70
2019-04-29T14:41:03.070Z,18.50
2019-04-29T14:53:06.731Z,18.50
2019-04-29T14:55:48.370Z,18.50
2019-04-29T14:58:29.753Z,18.30
2019-04-29T15:07:51.784Z,18.10
2019-04-29T15:20:16.069Z,18.00
2019-04-29T15:23:04.937Z,17.80
2019-04-29T15:28:52.063Z,17.70
2019-04-29T15:31:23.494Z,17.70
2019-04-29T15:33:53.736Z,17.70
2019-04-29T15:36:26.750Z,17.80
2019-04-29T15:39:08.759Z,17.70
2019-04-29T15:41:31.048Z,17.80
2019-04-29T15:44:07.613Z,17.80
2019-04-29T15:46:47.032Z,17.70
2019-04-29T15:49:24.300Z,17.70
2019-04-29T15:52:02.450Z,17.70
2019-04-29T15:54:32.786Z,17.80
2019-04-29T15:57:14.801Z,17.60
2019-04-29T16:00:03.773Z,17.60
2019-04-29T16:02:53.107Z,17.60
2019-04-29T16:06:19.680Z,17.50
2019-04-29T16:09:09.912Z,17.50
2019-04-29T16:12:17.523Z,17.50
2019-04-29T16:23:57.900Z,17.20
2019-04-29T16:26:30.062Z,17.20
2019-04-29T16:29:00.188Z,17.20
2019-04-29T16:31:32.992Z,17.10
2019-04-29T16:34:03.297Z,17.10
2019-04-29T16:36:33.241Z,17.10
2019-04-29T16:39:02.945Z,17.00
2019-04-29T16:41:58.035Z,17.00
2019-04-29T16:44:35.677Z,17.00
2019-04-29T16:47:01.683Z,16.80
2019-04-29T16:49:31.448Z,16.80
2019-04-29T16:52:01.609Z,16.70
2019-04-29T16:54:38.009Z,16.70
2019-04-29T16:57:16.395Z,16.70
2019-04-29T16:59:50.330Z,16.70
2019-04-29T17:02:26.089Z,16.60
2019-04-29T17:05:01.871Z,16.70
2019-04-29T17:07:38.804Z,16.70
2019-04-29T17:10:22.312Z,16.70
2019-04-29T17:12:53.638Z,16.70
2019-04-29T20:02:10.549Z,14.80
2019-04-29T20:05:09.702Z,14.80
2019-04-29T20:07:42.336Z,14.80
2019-04-29T20:10:36.754Z,14.80
2019-04-29T20:13:03.937Z,14.80
2019-04-29T20:19:21.875Z,14.80
2019-04-29T20:21:52.089Z,14.60
2019-04-29T20:24:42.599Z,14.60
2019-04-29T20:27:13.990Z,14.60
2019-04-29T20:30:03.200Z,14.60
2019-04-29T20:32:52.211Z,14.60
2019-04-29T20:35:22.663Z,14.60
2019-04-29T20:37:58.588Z,14.60
2019-04-29T20:40:26.821Z,14.60
2019-04-29T20:42:55.722Z,14.60
2019-04-29T20:45:28.938Z,14.50
2019-04-29T20:47:57.559Z,14.50
2019-04-29T20:50:27.782Z,14.40
2019-04-29T20:53:06.102Z,14.40
2019-04-29T20:55:38.336Z,14.40
2019-04-29T20:58:07.537Z,14.30
2019-04-29T21:00:39.063Z,14.10
2019-04-29T21:03:11.206Z,14.10
2019-04-29T21:05:48.226Z,14.00
2019-04-29T21:08:16.519Z,14.00
2019-04-29T21:10:46.655Z,13.90
2019-04-29T21:13:32.199Z,13.90
2019-04-29T21:16:22.843Z,13.90
2019-04-29T21:18:56.684Z,14.00
2019-04-29T21:21:26.477Z,14.00
2019-04-29T21:23:58.455Z,14.00
2019-04-29T21:26:27.669Z,14.00
2019-04-29T21:41:01.728Z,13.90
2019-04-29T21:43:46.938Z,13.80
2019-04-29T21:46:29.500Z,13.70
2019-04-29T21:49:11.645Z,13.70
2019-04-29T21:51:52.901Z,13.70
2019-04-29T21:54:34.676Z,13.70
2019-04-29T21:57:16.964Z,13.70
2019-04-29T21:59:58.242Z,13.70
2019-04-29T22:02:41.480Z,13.80
2019-04-29T22:05:21.717Z,13.70
2019-04-29T22:08:03.271Z,13.80
2019-04-29T22:10:35.122Z,13.80
2019-04-29T22:13:05.122Z,13.80
2019-04-29T22:15:41.012Z,13.70
2019-04-29T22:18:25.826Z,13.70
2019-04-29T22:21:22.214Z,13.70
2019-04-29T22:24:27.655Z,13.60
2019-04-29T22:27:16.983Z,13.60
2019-04-29T22:30:10.044Z,13.50
2019-04-29T22:32:58.682Z,13.50
2019-04-29T22:35:32.810Z,13.50
2019-04-29T22:38:18.961Z,13.50
2019-04-29T22:43:56.547Z,13.50
2019-04-29T22:46:26.484Z,13.50
2019-04-29T22:48:56.191Z,13.50
2019-04-29T22:51:25.867Z,13.40
2019-04-29T22:53:56.443Z,13.40
2019-04-29T22:56:27.876Z,13.40
2019-04-29T22:58:57.625Z,13.30
2019-04-29T23:01:27.435Z,13.30
2019-04-29T23:03:57.105Z,13.30
2019-04-29T23:06:28.430Z,13.20
2019-04-29T23:08:58.282Z,13.20
2019-04-29T23:11:27.949Z,13.30
2019-04-29T23:14:01.743Z,13.30
2019-04-29T23:16:31.544Z,13.30
2019-04-29T23:19:00.622Z,13.20
2019-04-29T23:22:10.382Z,13.20
2019-04-29T23:24:56.348Z,13.20
2019-04-29T23:27:26.546Z,13.10
2019-04-29T23:29:56.193Z,13.20
2019-04-29T23:32:25.878Z,13.20
2019-04-29T23:34:57.259Z,13.20
2019-04-29T23:37:46.798Z,13.20
2019-04-29T23:43:35.541Z,13.10
2019-04-29T23:49:06.723Z,13.00
2019-04-29T23:51:37.741Z,13.00
2019-04-29T23:54:29.007Z,13.00
2019-04-29T23:57:36.485Z,13.00
